sim
Sign-in with your pilot id or email,
or register
Callsign
Passwort

Schedule Details

Flight Number: EWG4106
Departure: Nuremberg Airport (EDDN) at 09:50
Arrival: Fuerteventura Airport (GCFV) at 14:40
Route: Eurowings Passenger Schedule. Enter filed route here before submitting Pirep.

Weather Information
Getting current METAR information for EDDN 231050Z VRB03KT CAVOK 30/12 Q1022 NOSIG
Getting current METAR information for GCFV 231100Z 06015KT 9999 FEW020 24/19 Q1017

Schedule Frequency

Route Map